createdAt,value
2023-09-24T00:01:30.109Z,79.84
2023-09-24T00:03:52.223Z,80.06
2023-09-24T00:06:14.323Z,80.16
2023-09-24T00:08:39.477Z,79.86
2023-09-24T00:11:04.075Z,80.09
2023-09-24T00:13:26.256Z,80.22
2023-09-24T00:15:48.032Z,79.92
2023-09-24T00:18:09.856Z,80.00
2023-09-24T00:20:31.688Z,80.13
2023-09-24T00:22:53.497Z,79.87
2023-09-24T00:25:15.846Z,80.17
2023-09-24T00:27:37.561Z,80.13
2023-09-24T00:29:59.672Z,80.02
2023-09-24T00:32:21.451Z,80.18
2023-09-24T00:34:43.177Z,80.03
2023-09-24T00:37:04.791Z,79.88
2023-09-24T00:39:26.951Z,80.17
2023-09-24T00:41:50.860Z,79.94
2023-09-24T00:44:16.218Z,80.24
2023-09-24T00:46:37.980Z,79.80
2023-09-24T00:49:00.651Z,79.90
2023-09-24T00:51:27.543Z,80.23
2023-09-24T00:53:54.574Z,80.17
2023-09-24T00:56:16.690Z,79.78
2023-09-24T00:58:40.218Z,79.96
2023-09-24T01:01:01.956Z,79.91
2023-09-24T01:03:25.148Z,79.99
2023-09-24T01:05:51.183Z,79.95
2023-09-24T01:08:13.283Z,79.92
2023-09-24T01:10:35.151Z,79.97
2023-09-24T01:13:02.066Z,80.51
2023-09-24T01:15:25.702Z,80.77
2023-09-24T01:17:48.973Z,80.15
2023-09-24T01:20:14.316Z,80.18
2023-09-24T01:22:38.114Z,80.42
2023-09-24T01:25:01.698Z,80.13
2023-09-24T01:27:26.125Z,80.33
2023-09-24T01:29:48.658Z,80.52
2023-09-24T01:32:10.388Z,80.60
2023-09-24T01:34:32.230Z,80.15
2023-09-24T01:36:54.853Z,80.49
2023-09-24T01:39:18.976Z,80.36
2023-09-24T01:41:41.075Z,80.28
2023-09-24T01:44:03.284Z,80.23
2023-09-24T01:46:24.990Z,80.16
2023-09-24T01:48:55.971Z,80.50
2023-09-24T01:51:17.857Z,80.41
2023-09-24T01:53:40.646Z,80.36
2023-09-24T01:56:05.530Z,80.39
2023-09-24T01:58:27.347Z,80.20
2023-09-24T02:00:49.370Z,80.08
2023-09-24T02:03:12.463Z,79.95
2023-09-24T02:05:36.256Z,80.44
2023-09-24T02:07:57.931Z,80.04
2023-09-24T02:10:21.572Z,80.18
2023-09-24T02:12:43.346Z,80.28
2023-09-24T02:15:10.306Z,80.28
2023-09-24T02:17:32.101Z,80.16
2023-09-24T02:19:56.850Z,80.32
2023-09-24T02:22:18.506Z,80.51
2023-09-24T02:24:41.425Z,80.40
2023-09-24T02:27:03.364Z,80.38
2023-09-24T02:29:25.140Z,80.34
2023-09-24T02:31:46.976Z,80.41
2023-09-24T02:34:09.328Z,80.35
2023-09-24T02:36:30.982Z,80.15
2023-09-24T02:38:52.693Z,80.52
2023-09-24T02:41:14.437Z,80.64
2023-09-24T02:43:38.012Z,80.48
2023-09-24T02:46:00.342Z,80.46
2023-09-24T02:48:22.217Z,80.42
2023-09-24T02:50:43.932Z,80.35
2023-09-24T02:53:06.769Z,80.49
2023-09-24T02:55:30.707Z,80.38
2023-09-24T02:57:52.448Z,80.29
2023-09-24T03:00:19.174Z,80.40
2023-09-24T03:02:40.987Z,80.62
2023-09-24T03:05:02.735Z,80.35
2023-09-24T03:07:26.597Z,80.30
2023-09-24T03:09:54.517Z,80.50
2023-09-24T03:12:16.264Z,80.59
2023-09-24T03:14:37.977Z,80.31
2023-09-24T03:17:00.503Z,80.48
2023-09-24T03:19:22.157Z,80.52
2023-09-24T03:21:43.894Z,80.50
2023-09-24T03:24:09.158Z,80.24
2023-09-24T03:26:31.174Z,80.54
2023-09-24T03:28:52.818Z,80.25
2023-09-24T03:31:16.777Z,80.25
2023-09-24T03:33:38.660Z,80.63
2023-09-24T03:36:00.971Z,80.66
2023-09-24T03:38:24.240Z,80.83
2023-09-24T03:40:46.252Z,80.58
2023-09-24T03:43:08.043Z,80.82
2023-09-24T03:45:29.728Z,80.79
2023-09-24T03:47:53.502Z,80.58
2023-09-24T03:50:18.486Z,80.62
2023-09-24T03:52:52.047Z,80.76
2023-09-24T03:55:17.327Z,80.74
2023-09-24T03:57:39.966Z,80.47
2023-09-24T04:00:01.842Z,80.89
2023-09-24T04:02:25.210Z,80.57
2023-09-24T04:04:47.408Z,80.90
2023-09-24T04:07:09.166Z,80.37
2023-09-24T04:09:34.441Z,80.57
2023-09-24T04:11:56.337Z,80.58
2023-09-24T04:14:18.060Z,80.42
2023-09-24T04:16:39.764Z,80.35
2023-09-24T04:19:01.454Z,80.56
2023-09-24T04:21:23.121Z,80.77
2023-09-24T04:23:47.291Z,80.23
2023-09-24T04:26:18.081Z,80.19
2023-09-24T04:28:39.717Z,80.22
2023-09-24T04:31:01.403Z,80.59
2023-09-24T04:33:24.073Z,80.68
2023-09-24T04:35:45.940Z,80.33
2023-09-24T04:38:09.097Z,80.64
2023-09-24T04:40:32.349Z,80.62
2023-09-24T04:42:54.106Z,80.45
2023-09-24T04:45:16.293Z,80.54
2023-09-24T04:47:40.167Z,80.49
2023-09-24T04:50:03.195Z,80.42
2023-09-24T04:52:24.801Z,80.30
2023-09-24T04:54:46.525Z,80.37
2023-09-24T04:57:10.619Z,80.51
2023-09-24T04:59:32.348Z,80.33
2023-09-24T05:01:54.076Z,80.58
2023-09-24T05:04:17.834Z,80.55
2023-09-24T05:06:39.739Z,80.45
2023-09-24T05:09:01.458Z,80.66
2023-09-24T05:11:23.269Z,80.60
2023-09-24T05:13:45.516Z,80.75
2023-09-24T05:16:09.762Z,80.57
2023-09-24T05:18:33.717Z,80.69
2023-09-24T05:20:56.145Z,80.64
2023-09-24T05:23:17.912Z,80.48
2023-09-24T05:25:39.645Z,80.78
2023-09-24T05:28:01.288Z,80.60
2023-09-24T05:30:22.931Z,80.68
2023-09-24T05:32:44.684Z,80.52
2023-09-24T05:35:06.996Z,80.40
2023-09-24T05:37:28.789Z,80.62
2023-09-24T05:39:50.478Z,80.68
2023-09-24T05:42:12.130Z,80.42
2023-09-24T05:44:34.353Z,80.33
2023-09-24T05:46:56.075Z,80.45
2023-09-24T05:49:17.838Z,80.51
2023-09-24T05:51:39.644Z,80.62
2023-09-24T05:54:01.580Z,80.66
2023-09-24T05:56:25.576Z,80.61
2023-09-24T05:58:47.328Z,80.87
2023-09-24T06:01:15.745Z,80.57
2023-09-24T06:03:37.544Z,80.66
2023-09-24T06:05:59.401Z,81.03
2023-09-24T06:08:21.823Z,80.94
2023-09-24T06:10:45.953Z,81.17
2023-09-24T06:13:07.929Z,81.13
2023-09-24T06:15:29.831Z,81.27
2023-09-24T06:17:52.374Z,81.11
2023-09-24T06:20:15.614Z,81.35
2023-09-24T06:22:37.423Z,81.44
2023-09-24T06:24:59.271Z,81.30
2023-09-24T06:27:22.822Z,81.50
2023-09-24T06:29:44.678Z,78.41
2023-09-24T06:32:06.445Z,73.43
2023-09-24T06:34:28.670Z,71.00
2023-09-24T06:36:50.324Z,70.02
2023-09-24T06:39:15.204Z,69.72
2023-09-24T06:41:37.431Z,69.12
2023-09-24T06:43:59.150Z,69.78
2023-09-24T06:46:20.983Z,70.42
2023-09-24T06:48:43.075Z,71.09
2023-09-24T06:51:09.989Z,71.71
2023-09-24T06:53:31.845Z,72.25
2023-09-24T06:55:53.682Z,73.13
2023-09-24T06:58:15.689Z,73.82
2023-09-24T07:00:37.421Z,74.55
2023-09-24T07:02:59.728Z,75.30
2023-09-24T07:05:21.683Z,75.92
2023-09-24T07:07:43.928Z,76.27
2023-09-24T07:10:07.432Z,76.86
2023-09-24T07:12:30.071Z,77.27
2023-09-24T07:14:51.988Z,77.49
2023-09-24T07:17:13.773Z,77.69
2023-09-24T07:19:35.600Z,78.17
2023-09-24T07:21:58.457Z,78.03
2023-09-24T07:24:20.258Z,78.34
2023-09-24T07:26:45.675Z,78.48
2023-09-24T07:29:07.524Z,78.65
2023-09-24T07:31:31.504Z,78.95
2023-09-24T07:33:55.870Z,78.78
2023-09-24T07:36:31.180Z,78.82
2023-09-24T07:38:55.221Z,79.01
2023-09-24T07:41:17.259Z,79.23
2023-09-24T07:43:43.129Z,78.89
2023-09-24T07:46:09.967Z,78.77
2023-09-24T07:48:33.178Z,78.76
2023-09-24T07:50:56.691Z,78.43
2023-09-24T07:53:18.422Z,78.11
2023-09-24T07:55:40.147Z,77.87
2023-09-24T07:58:02.023Z,77.88
2023-09-24T08:00:23.827Z,77.61
2023-09-24T08:02:46.569Z,77.56
2023-09-24T08:05:10.206Z,77.62
2023-09-24T08:07:33.831Z,77.46
2023-09-24T08:09:56.081Z,77.39
2023-09-24T08:12:17.994Z,77.43
2023-09-24T08:14:39.990Z,76.92
2023-09-24T08:17:01.988Z,76.83
2023-09-24T08:19:23.833Z,76.68
2023-09-24T08:21:45.883Z,76.42
2023-09-24T08:24:08.298Z,76.01
2023-09-24T08:26:30.543Z,75.67
2023-09-24T08:28:52.331Z,75.24
2023-09-24T08:31:14.235Z,75.27
2023-09-24T08:33:36.247Z,74.83
2023-09-24T08:35:58.069Z,74.27
2023-09-24T08:38:20.393Z,73.86
2023-09-24T08:40:42.559Z,73.94
2023-09-24T08:43:11.815Z,73.11
2023-09-24T08:45:33.981Z,72.43
2023-09-24T08:47:58.722Z,72.37
2023-09-24T08:50:20.820Z,72.42
2023-09-24T08:52:46.845Z,71.33
2023-09-24T08:55:11.543Z,70.32
2023-09-24T08:57:41.468Z,69.57
2023-09-24T09:00:07.676Z,69.81
2023-09-24T09:02:29.730Z,69.80
2023-09-24T09:04:52.021Z,70.08
2023-09-24T09:07:14.154Z,70.48
2023-09-24T09:09:35.836Z,70.30
2023-09-24T09:11:57.591Z,69.31
2023-09-24T09:14:38.416Z,68.09
2023-09-24T09:17:00.759Z,68.29
2023-09-24T09:19:23.159Z,67.57
2023-09-24T09:21:44.949Z,66.80
2023-09-24T09:24:24.422Z,66.05
2023-09-24T09:26:46.262Z,66.32
2023-09-24T09:29:08.137Z,65.79
2023-09-24T09:31:30.058Z,65.19
2023-09-24T09:33:51.938Z,65.08
2023-09-24T09:36:31.370Z,64.01
2023-09-24T09:38:55.208Z,64.15
2023-09-24T09:41:19.640Z,64.30
2023-09-24T09:43:42.960Z,63.80
2023-09-24T09:46:09.359Z,63.24
2023-09-24T09:48:34.112Z,63.72
2023-09-24T09:51:03.125Z,62.78
2023-09-24T09:53:31.447Z,61.83
2023-09-24T09:55:54.807Z,61.72
2023-09-24T09:58:23.610Z,61.99
2023-09-24T10:00:46.079Z,61.01
2023-09-24T10:03:10.574Z,60.90
2023-09-24T10:05:33.336Z,60.60
2023-09-24T10:07:55.284Z,60.42
2023-09-24T10:10:32.744Z,60.87
2023-09-24T10:12:54.472Z,60.62
2023-09-24T10:15:31.053Z,60.44
2023-09-24T10:18:08.130Z,60.05
2023-09-24T10:20:49.874Z,59.71
2023-09-24T10:23:30.008Z,59.35
2023-09-24T10:25:51.741Z,58.76
2023-09-24T10:28:13.815Z,59.21
2023-09-24T10:31:07.870Z,59.45
2023-09-24T10:34:03.444Z,58.45
2023-09-24T10:36:31.769Z,58.20
2023-09-24T10:39:15.140Z,57.62
2023-09-24T10:41:57.705Z,56.61
2023-09-24T10:44:29.256Z,56.44
2023-09-24T10:46:57.328Z,55.97
2023-09-24T10:49:28.012Z,55.56
2023-09-24T10:51:50.008Z,55.53
2023-09-24T10:54:17.270Z,54.91
2023-09-24T10:56:39.238Z,55.77
2023-09-24T10:59:01.028Z,55.39
2023-09-24T11:01:31.523Z,53.65
2023-09-24T11:03:53.488Z,53.65
2023-09-24T11:06:15.288Z,53.48
2023-09-24T11:08:37.160Z,53.61
2023-09-24T11:10:59.006Z,52.78
2023-09-24T11:13:26.159Z,52.44
2023-09-24T11:15:48.182Z,52.72
2023-09-24T11:18:14.371Z,52.65
2023-09-24T11:20:36.714Z,51.96
2023-09-24T11:23:10.267Z,52.43
2023-09-24T11:25:32.503Z,52.22
2023-09-24T11:27:57.709Z,52.78
2023-09-24T11:30:22.990Z,52.48
2023-09-24T11:32:51.249Z,50.86
2023-09-24T11:35:16.075Z,51.69
2023-09-24T11:37:54.540Z,50.63
2023-09-24T11:40:39.627Z,49.07
2023-09-24T11:43:05.601Z,49.26
2023-09-24T11:45:40.190Z,49.19
2023-09-24T11:48:04.186Z,49.93
2023-09-24T11:50:28.264Z,49.43
2023-09-24T11:52:50.779Z,49.56
2023-09-24T11:55:12.551Z,49.65
2023-09-24T11:57:34.588Z,49.06
2023-09-24T11:59:56.386Z,49.52
2023-09-24T12:02:18.386Z,48.39
2023-09-24T12:04:40.699Z,48.98
2023-09-24T12:07:03.211Z,49.06
2023-09-24T12:09:25.397Z,47.66
2023-09-24T12:11:47.913Z,48.32
2023-09-24T12:14:09.640Z,47.94
2023-09-24T12:16:31.392Z,48.25
2023-09-24T12:18:53.217Z,48.69
2023-09-24T12:21:15.406Z,48.13
2023-09-24T12:23:37.273Z,47.52
2023-09-24T12:25:59.691Z,48.35
2023-09-24T12:28:21.491Z,47.46
2023-09-24T12:30:44.557Z,47.71
2023-09-24T12:33:09.802Z,48.08
2023-09-24T12:35:34.737Z,48.56
2023-09-24T12:37:56.676Z,47.54
2023-09-24T12:40:18.424Z,47.53
2023-09-24T12:42:43.083Z,47.38
2023-09-24T12:45:07.225Z,47.87
2023-09-24T12:47:29.965Z,47.98
2023-09-24T12:49:58.916Z,47.40
2023-09-24T12:52:22.120Z,46.06
2023-09-24T12:54:43.829Z,46.55
2023-09-24T12:57:05.761Z,46.69
2023-09-24T12:59:27.503Z,46.71
2023-09-24T13:01:49.460Z,46.97
2023-09-24T13:04:11.483Z,46.13
2023-09-24T13:06:33.495Z,45.50
2023-09-24T13:08:55.318Z,46.70
2023-09-24T13:11:17.975Z,46.73
2023-09-24T13:13:40.016Z,46.88
2023-09-24T13:16:01.716Z,46.82
2023-09-24T13:18:23.543Z,46.70
2023-09-24T13:20:45.356Z,46.94
2023-09-24T13:23:07.766Z,46.96
2023-09-24T13:25:29.424Z,47.11
2023-09-24T13:27:51.113Z,47.46
2023-09-24T13:30:12.986Z,47.37
2023-09-24T13:32:36.823Z,47.44
2023-09-24T13:35:01.095Z,47.20
2023-09-24T13:37:22.824Z,47.22
2023-09-24T13:39:45.089Z,47.16
2023-09-24T13:42:07.204Z,47.42
2023-09-24T13:44:29.095Z,46.77
2023-09-24T13:46:50.957Z,46.67
2023-09-24T13:49:12.809Z,46.61
2023-09-24T13:51:36.613Z,47.05
2023-09-24T13:53:58.362Z,47.17
2023-09-24T13:56:20.072Z,46.90
2023-09-24T13:58:42.095Z,46.96
2023-09-24T14:01:04.524Z,46.48
2023-09-24T14:03:26.500Z,47.05
2023-09-24T14:05:55.861Z,46.10
2023-09-24T14:08:36.420Z,46.26
2023-09-24T14:11:16.564Z,46.46
2023-09-24T14:13:38.357Z,46.25
2023-09-24T14:16:00.058Z,45.84
2023-09-24T14:18:21.825Z,45.81
2023-09-24T14:20:43.699Z,46.16
2023-09-24T14:23:05.391Z,45.39
2023-09-24T14:25:27.031Z,44.78
2023-09-24T14:27:48.802Z,44.89
2023-09-24T14:30:12.631Z,45.21
2023-09-24T14:32:34.750Z,45.47
2023-09-24T14:34:56.458Z,44.63
2023-09-24T14:37:18.731Z,44.85
2023-09-24T14:39:40.415Z,44.92
2023-09-24T14:42:03.121Z,45.33
2023-09-24T14:44:26.106Z,45.87
2023-09-24T14:46:48.505Z,45.61
2023-09-24T14:49:10.551Z,46.05
2023-09-24T14:51:35.975Z,46.31
2023-09-24T14:54:00.004Z,45.38
2023-09-24T14:56:22.122Z,45.50
2023-09-24T14:58:43.780Z,45.19
2023-09-24T15:01:08.081Z,45.07
2023-09-24T15:03:31.923Z,45.24
2023-09-24T15:05:53.643Z,45.49
2023-09-24T15:08:15.380Z,45.42
2023-09-24T15:10:42.463Z,46.36
2023-09-24T15:13:04.323Z,45.62
2023-09-24T15:15:26.179Z,45.61
2023-09-24T15:17:48.265Z,45.84
2023-09-24T15:20:10.747Z,46.04
2023-09-24T15:22:32.559Z,46.46
2023-09-24T15:24:54.233Z,46.59
2023-09-24T15:27:16.098Z,46.46
2023-09-24T15:29:37.859Z,46.70
2023-09-24T15:31:59.505Z,46.61
2023-09-24T15:34:21.980Z,46.69
2023-09-24T15:36:43.915Z,46.47
2023-09-24T15:39:05.888Z,46.58
2023-09-24T15:41:31.481Z,46.66
2023-09-24T15:43:53.560Z,46.72
2023-09-24T15:46:17.852Z,47.22
2023-09-24T15:48:39.889Z,47.28
2023-09-24T15:51:04.975Z,47.47
2023-09-24T15:53:26.807Z,47.72
2023-09-24T15:55:48.543Z,47.97
2023-09-24T15:58:11.076Z,47.31
2023-09-24T16:00:33.272Z,47.71
2023-09-24T16:02:55.104Z,47.55
2023-09-24T16:05:17.760Z,47.67
2023-09-24T16:07:40.291Z,47.51
2023-09-24T16:10:04.773Z,47.51
2023-09-24T16:12:26.624Z,47.68
2023-09-24T16:14:48.430Z,47.98
2023-09-24T16:17:10.196Z,48.05
2023-09-24T16:19:32.317Z,48.04
2023-09-24T16:21:53.998Z,48.86
2023-09-24T16:24:15.950Z,49.18
2023-09-24T16:26:37.646Z,49.18
2023-09-24T16:28:59.353Z,49.46
2023-09-24T16:31:21.296Z,49.59
2023-09-24T16:33:43.059Z,49.77
2023-09-24T16:36:06.068Z,50.18
2023-09-24T16:38:27.845Z,49.91
2023-09-24T16:40:59.964Z,50.36
2023-09-24T16:43:22.027Z,50.44
2023-09-24T16:45:53.334Z,50.70
2023-09-24T16:48:15.106Z,50.76
2023-09-24T16:50:37.517Z,51.11
2023-09-24T16:52:59.588Z,51.21
2023-09-24T16:55:21.264Z,51.52
2023-09-24T16:57:46.306Z,51.51
2023-09-24T17:00:12.014Z,51.38
2023-09-24T17:02:33.938Z,51.91
2023-09-24T17:04:56.042Z,52.12
2023-09-24T17:07:17.926Z,52.28
2023-09-24T17:09:39.636Z,52.22
2023-09-24T17:12:02.954Z,52.20
2023-09-24T17:14:24.815Z,52.49
2023-09-24T17:16:46.675Z,52.43
2023-09-24T17:19:08.387Z,52.72
2023-09-24T17:21:30.235Z,52.85
2023-09-24T17:23:52.097Z,52.95
2023-09-24T17:26:17.239Z,53.10
2023-09-24T17:28:41.065Z,53.33
2023-09-24T17:31:06.834Z,53.35
2023-09-24T17:33:28.553Z,53.95
2023-09-24T17:35:53.443Z,54.07
2023-09-24T17:38:15.100Z,54.06
2023-09-24T17:40:40.325Z,54.39
2023-09-24T17:43:02.019Z,54.43
2023-09-24T17:45:23.805Z,54.90
2023-09-24T17:47:47.687Z,54.99
2023-09-24T17:50:09.631Z,55.27
2023-09-24T17:52:31.294Z,55.35
2023-09-24T17:54:52.989Z,55.79
2023-09-24T17:57:14.696Z,55.88
2023-09-24T17:59:36.347Z,56.01
2023-09-24T18:01:58.318Z,56.39
2023-09-24T18:04:20.137Z,56.58
2023-09-24T18:06:41.883Z,56.78
2023-09-24T18:09:06.031Z,57.15
2023-09-24T18:11:27.917Z,57.64
2023-09-24T18:13:49.721Z,58.04
2023-09-24T18:16:11.998Z,58.29
2023-09-24T18:18:37.307Z,58.61
2023-09-24T18:21:01.943Z,59.07
2023-09-24T18:23:24.793Z,59.10
2023-09-24T18:25:48.545Z,59.51
2023-09-24T18:28:10.690Z,59.46
2023-09-24T18:30:32.419Z,60.00
2023-09-24T18:32:54.507Z,60.12
2023-09-24T18:35:16.303Z,60.54
2023-09-24T18:37:37.962Z,60.71
2023-09-24T18:39:59.823Z,60.83
2023-09-24T18:42:22.833Z,61.17
2023-09-24T18:44:44.522Z,61.35
2023-09-24T18:47:09.177Z,61.26
2023-09-24T18:49:30.795Z,61.43
2023-09-24T18:51:52.525Z,61.83
2023-09-24T18:54:14.232Z,62.34
2023-09-24T18:56:35.936Z,62.30
2023-09-24T18:58:57.589Z,62.33
2023-09-24T19:01:19.281Z,62.79
2023-09-24T19:03:41.122Z,62.63
2023-09-24T19:06:09.349Z,62.75
2023-09-24T19:08:31.211Z,62.67
2023-09-24T19:10:53.741Z,62.67
2023-09-24T19:13:15.454Z,62.66
2023-09-24T19:15:37.767Z,62.78
2023-09-24T19:17:59.570Z,63.17
2023-09-24T19:20:21.602Z,62.86
2023-09-24T19:22:43.316Z,63.15
2023-09-24T19:25:05.688Z,63.17
2023-09-24T19:27:28.217Z,63.22
2023-09-24T19:29:59.181Z,63.68
2023-09-24T19:32:21.042Z,63.61
2023-09-24T19:34:42.802Z,63.77
2023-09-24T19:37:04.528Z,63.75
2023-09-24T19:39:26.215Z,64.17
2023-09-24T19:41:48.032Z,64.36
2023-09-24T19:44:11.941Z,64.37
2023-09-24T19:46:33.964Z,64.28
2023-09-24T19:48:55.779Z,64.02
2023-09-24T19:51:18.040Z,64.40
2023-09-24T19:53:39.736Z,64.61
2023-09-24T19:56:01.594Z,64.59
2023-09-24T19:58:26.272Z,64.66
2023-09-24T20:00:48.795Z,64.64
2023-09-24T20:03:11.390Z,64.71
2023-09-24T20:05:33.215Z,64.81
2023-09-24T20:07:54.862Z,64.67
2023-09-24T20:10:18.756Z,64.68
2023-09-24T20:12:40.541Z,64.63
2023-09-24T20:15:04.726Z,64.73
2023-09-24T20:17:27.300Z,64.11
2023-09-24T20:19:48.972Z,64.78
2023-09-24T20:22:10.700Z,64.93
2023-09-24T20:24:38.953Z,64.99
2023-09-24T20:27:00.832Z,65.21
2023-09-24T20:29:22.481Z,65.47
2023-09-24T20:31:44.503Z,65.48
2023-09-24T20:34:06.435Z,65.59
2023-09-24T20:36:29.358Z,65.80
2023-09-24T20:38:51.972Z,66.09
2023-09-24T20:41:18.562Z,66.11
2023-09-24T20:43:42.141Z,66.13
2023-09-24T20:46:04.196Z,66.23
2023-09-24T20:48:26.058Z,66.24
2023-09-24T20:50:47.883Z,66.38
2023-09-24T20:53:09.589Z,66.33
2023-09-24T20:55:31.250Z,66.64
2023-09-24T20:57:52.933Z,66.59
2023-09-24T21:00:26.313Z,67.08
2023-09-24T21:02:48.038Z,66.86
2023-09-24T21:05:09.767Z,66.95
2023-09-24T21:07:33.564Z,67.00
2023-09-24T21:09:55.259Z,66.91
2023-09-24T21:12:17.358Z,67.22
2023-09-24T21:14:39.021Z,67.09
2023-09-24T21:17:00.777Z,67.24
2023-09-24T21:19:22.440Z,67.21
2023-09-24T21:21:44.132Z,67.21
2023-09-24T21:24:06.886Z,66.75
2023-09-24T21:26:28.682Z,67.14
2023-09-24T21:28:50.603Z,67.00
2023-09-24T21:31:12.586Z,66.83
2023-09-24T21:33:35.641Z,66.93
2023-09-24T21:35:59.602Z,66.95
2023-09-24T21:38:21.311Z,66.85
2023-09-24T21:40:42.997Z,66.84
2023-09-24T21:43:04.694Z,66.83
2023-09-24T21:45:26.386Z,66.81
2023-09-24T21:47:49.280Z,66.74
2023-09-24T21:50:11.109Z,66.86
2023-09-24T21:52:33.045Z,66.74
2023-09-24T21:54:55.632Z,66.97
2023-09-24T21:57:19.002Z,66.93
2023-09-24T21:59:40.805Z,66.86
2023-09-24T22:02:03.816Z,66.80
2023-09-24T22:04:25.674Z,66.88
2023-09-24T22:06:47.640Z,66.85
2023-09-24T22:09:10.666Z,66.86
2023-09-24T22:11:32.380Z,66.83
2023-09-24T22:13:54.229Z,66.83
2023-09-24T22:16:16.343Z,67.04
2023-09-24T22:18:38.181Z,67.10
2023-09-24T22:21:02.477Z,67.15
2023-09-24T22:23:24.139Z,66.91
2023-09-24T22:25:45.980Z,67.32
2023-09-24T22:28:07.842Z,67.47
2023-09-24T22:30:31.564Z,67.36
2023-09-24T22:32:53.316Z,67.51
2023-09-24T22:35:18.435Z,67.29
2023-09-24T22:37:42.384Z,67.26
2023-09-24T22:40:08.321Z,67.33
2023-09-24T22:42:30.038Z,67.28
2023-09-24T22:44:51.868Z,67.30
2023-09-24T22:47:14.105Z,67.37
2023-09-24T22:49:35.888Z,67.23
2023-09-24T22:51:57.689Z,67.46
2023-09-24T22:54:19.879Z,67.32
2023-09-24T22:56:41.756Z,67.41
2023-09-24T22:59:03.575Z,67.22
2023-09-24T23:01:25.325Z,67.13
2023-09-24T23:03:47.424Z,67.39
2023-09-24T23:06:09.380Z,67.28
2023-09-24T23:08:31.125Z,67.17
2023-09-24T23:10:52.791Z,67.30
2023-09-24T23:13:14.529Z,67.28
2023-09-24T23:15:36.602Z,66.95
2023-09-24T23:17:58.318Z,67.29
2023-09-24T23:20:21.023Z,67.18
2023-09-24T23:22:43.146Z,67.18
2023-09-24T23:25:05.770Z,67.08
2023-09-24T23:27:27.482Z,66.65
2023-09-24T23:29:49.271Z,66.87
2023-09-24T23:32:10.939Z,66.68
2023-09-24T23:34:32.693Z,66.96
2023-09-24T23:36:54.613Z,66.76
2023-09-24T23:39:17.089Z,66.58
2023-09-24T23:41:39.190Z,66.65
2023-09-24T23:44:00.836Z,66.48
2023-09-24T23:46:22.614Z,66.59
2023-09-24T23:48:44.559Z,66.52
2023-09-24T23:51:06.593Z,66.48
2023-09-24T23:53:28.414Z,66.35
2023-09-24T23:55:53.063Z,66.48
2023-09-24T23:58:14.756Z,66.59
